航空気象通報

ウインドサーファーのための航空気象通報による風予報です。

4/27-28の航空気象通報(国内、海外)

2008年04月27日 22時11分50秒 | TAF
羽田空港
TAF RJTT 270841Z 271812 01010KT 9000 FEW030
BECMG 0003 07010KT
日本時間28日03-09時:010度から10ノットの風
09-12時:風が変化
12-21時:070度から10ノットの風


那覇空港
TAF ROAH 270843Z 271812 10006KT 9999 FEW025
BECMG 0306 08008KT
日本時間28日03-12時:100度から6ノットの風
12-15時:風が変化
15-21時:080度から8ノットの風


マウイのカフルイ空港
PHOG 271122Z 271212 05008KT P6SM SCT040
FM1900 07015G22KT P6SM SCT040
FM0400 05010KT P6SM SCT040
ハワイ時間27日02-09時:050度から8ノットの風
09-18時:050度から15ノット、突風22ノット
18時-28日02時:050度から10ノットの風


サイパン空港
PGSN 271120Z 271212 09011KT P6SM VCSH SCT020
マリアナ時間27日22時-28日22時:090度から11ノットの風
コメント
この記事をはてなブックマークに追加